Time;durP1;ratioP1;P1;durP2;ratioP2;P2;SDS_P1;SDS_P2;PMS_P1;PMS_P2;Temp;Humidity;BMP_temperature;BMP_pressure;BME280_temperature;BME280_humidity;BME280_pressure;Samples;Min_cycle;Max_cycle;Signal;HPM_P1;HPM_P2
2022/10/17 00:01:09;;;;;;;9.48;5.93;;;14.70;99.90;;;;;;5057373;28;20211;-72
2022/10/17 00:03:37;;;;;;;8.05;5.32;;;14.70;99.90;;;;;;5051748;28;20291;-73
2022/10/17 00:06:07;;;;;;;5.90;4.50;;;14.60;99.90;;;;;;5051934;28;20692;-71
2022/10/17 00:08:34;;;;;;;7.90;4.45;;;14.70;99.90;;;;;;5050436;28;20258;-73
2022/10/17 00:11:02;;;;;;;7.75;4.95;;;14.80;99.90;;;;;;5045726;28;20195;-72
2022/10/17 00:13:30;;;;;;;6.65;3.83;;;14.70;99.90;;;;;;5052816;28;20208;-72
2022/10/17 00:15:59;;;;;;;4.25;3.47;;;14.90;99.90;;;;;;5048952;28;20246;-73
2022/10/17 00:18:27;;;;;;;5.45;3.80;;;14.80;99.90;;;;;;5055867;28;20299;-73
2022/10/17 00:20:54;;;;;;;7.55;5.00;;;14.90;99.90;;;;;;5051239;28;20200;-71
2022/10/17 00:23:20;;;;;;;10.20;4.32;;;14.90;99.90;;;;;;5057965;28;20286;-70
2022/10/17 00:25:47;;;;;;;6.18;4.18;;;14.90;99.90;;;;;;5051475;28;20224;-72
2022/10/17 00:28:16;;;;;;;3.95;2.95;;;15.00;99.90;;;;;;5054447;28;20227;-73
2022/10/17 00:30:44;;;;;;;4.82;2.95;;;15.00;99.90;;;;;;5054975;28;20201;-73
2022/10/17 00:33:12;;;;;;;6.45;3.58;;;15.10;99.90;;;;;;5053301;28;20202;-72
2022/10/17 00:35:41;;;;;;;4.60;3.50;;;15.20;99.90;;;;;;5051934;28;20232;-71
2022/10/17 00:38:07;;;;;;;4.20;3.22;;;15.20;99.90;;;;;;5050935;28;20304;-72
2022/10/17 00:40:35;;;;;;;6.60;3.70;;;15.30;99.90;;;;;;5050417;28;20202;-73
2022/10/17 00:43:02;;;;;;;3.90;3.30;;;15.30;99.90;;;;;;5052115;28;20206;-74
2022/10/17 00:45:31;;;;;;;4.90;3.33;;;15.30;99.90;;;;;;5055876;28;20308;-72
2022/10/17 00:48:03;;;;;;;3.60;2.70;;;15.30;99.90;;;;;;5055797;28;20255;-72
2022/10/17 00:50:33;;;;;;;5.78;3.72;;;15.20;99.90;;;;;;5052949;28;20569;-71
2022/10/17 00:53:02;;;;;;;5.78;3.50;;;15.30;99.90;;;;;;5055938;28;20646;-71
2022/10/17 00:55:33;;;;;;;6.18;3.35;;;15.30;99.90;;;;;;5055605;28;20244;-73
2022/10/17 00:58:02;;;;;;;4.55;3.47;;;15.20;99.90;;;;;;5055752;28;20279;-72
2022/10/17 01:00:29;;;;;;;3.25;2.85;;;15.20;99.90;;;;;;5055315;28;20289;-72
2022/10/17 01:02:56;;;;;;;2.97;2.45;;;15.20;99.90;;;;;;5056010;28;20205;-72
2022/10/17 01:05:23;;;;;;;4.28;2.85;;;15.20;99.90;;;;;;5063769;28;20601;-73
2022/10/17 01:07:52;;;;;;;3.58;3.25;;;15.20;99.90;;;;;;5061769;28;20303;-72
2022/10/17 01:10:20;;;;;;;3.33;2.67;;;15.20;99.90;;;;;;5053251;28;20202;-74
2022/10/17 01:13:01;;;;;;;4.68;2.60;;;15.20;99.90;;;;;;5054414;28;20558;-74
2022/10/17 01:15:39;;;;;;;7.00;2.80;;;15.30;99.90;;;;;;5063284;28;20202;-72
2022/10/17 01:18:19;;;;;;;3.40;2.42;;;15.30;99.90;;;;;;5065939;28;20478;-72
2022/10/17 01:21:20;;;;;;;3.30;3.00;;;15.30;99.90;;;;;;5065318;28;20295;-71
2022/10/17 01:24:13;;;;;;;3.28;2.90;;;15.30;99.90;;;;;;5063764;28;20281;-73
2022/10/17 01:26:57;;;;;;;4.53;3.10;;;15.40;99.90;;;;;;5057335;28;20222;-73
2022/10/17 01:29:52;;;;;;;3.70;3.13;;;15.50;99.90;;;;;;5056689;28;20211;-73
2022/10/17 01:32:26;;;;;;;5.70;3.60;;;15.50;99.90;;;;;;5045649;28;20440;-73
2022/10/17 01:34:58;;;;;;;5.82;3.72;;;15.50;99.90;;;;;;5053523;28;20286;-74
2022/10/17 01:37:30;;;;;;;3.30;2.80;;;15.50;99.90;;;;;;5062946;28;20277;-72
2022/10/17 01:40:03;;;;;;;3.88;3.00;;;15.50;99.90;;;;;;5055872;28;20206;-75
2022/10/17 01:42:36;;;;;;;3.42;3.13;;;15.50;99.90;;;;;;5066062;28;20201;-72
2022/10/17 01:45:10;;;;;;;7.03;3.75;;;15.60;99.90;;;;;;5062828;28;20284;-73
2022/10/17 01:47:41;;;;;;;5.43;3.92;;;15.50;99.90;;;;;;5058620;28;20251;-72
2022/10/17 01:50:15;;;;;;;5.70;3.50;;;15.40;99.90;;;;;;5048969;28;20287;-71
2022/10/17 01:52:46;;;;;;;4.07;3.30;;;15.40;99.90;;;;;;5055580;28;20544;-74
2022/10/17 01:55:16;;;;;;;5.53;3.85;;;15.30;99.90;;;;;;5055217;28;20920;-73
2022/10/17 01:57:49;;;;;;;3.78;3.33;;;15.30;99.90;;;;;;5046079;28;20220;-73
2022/10/17 02:00:20;;;;;;;10.38;4.47;;;15.20;99.90;;;;;;5053770;28;20248;-71
2022/10/17 02:02:53;;;;;;;4.20;3.80;;;15.20;99.90;;;;;;5054412;28;20213;-70
2022/10/17 02:05:24;;;;;;;5.03;4.63;;;15.10;99.90;;;;;;5054958;28;20316;-73
2022/10/17 02:07:51;;;;;;;5.63;4.57;;;14.90;99.90;;;;;;5048187;28;20290;-72
2022/10/17 02:10:26;;;;;;;5.18;3.58;;;14.80;99.90;;;;;;5056975;28;20238;-71
2022/10/17 02:12:56;;;;;;;4.78;3.63;;;14.70;99.90;;;;;;5054566;28;20249;-74
2022/10/17 02:15:41;;;;;;;5.10;4.00;;;14.80;99.90;;;;;;5055431;28;20200;-73
2022/10/17 02:18:23;;;;;;;4.07;3.78;;;14.80;99.90;;;;;;5054333;28;20222;-71
2022/10/17 02:20:55;;;;;;;4.28;3.40;;;14.80;99.90;;;;;;5048245;28;20240;-71
2022/10/17 02:23:32;;;;;;;5.03;3.53;;;14.80;99.90;;;;;;5054159;28;20338;-74
2022/10/17 02:26:06;;;;;;;7.43;4.00;;;14.80;99.90;;;;;;5053273;28;20221;-72
2022/10/17 02:28:40;;;;;;;5.22;3.95;;;14.90;99.90;;;;;;5054063;28;20559;-74
2022/10/17 02:31:10;;;;;;;4.85;4.10;;;14.80;99.90;;;;;;5050232;28;20202;-72
2022/10/17 02:33:44;;;;;;;4.70;4.13;;;14.80;99.90;;;;;;5060635;28;20287;-75
2022/10/17 02:36:15;;;;;;;5.60;4.90;;;14.80;99.90;;;;;;5055955;28;20192;-72
2022/10/17 02:38:43;;;;;;;7.65;5.10;;;14.70;99.90;;;;;;5055805;28;20220;-73
2022/10/17 02:41:13;;;;;;;6.05;4.10;;;14.60;99.90;;;;;;5058956;28;20288;-71
2022/10/17 02:43:44;;;;;;;7.30;4.32;;;14.60;99.90;;;;;;5060779;28;20200;-74
2022/10/17 02:46:12;;;;;;;5.75;4.30;;;14.60;99.90;;;;;;5053206;28;20318;-71
2022/10/17 02:48:45;;;;;;;6.55;4.60;;;14.50;99.90;;;;;;5057089;28;20500;-71
2022/10/17 02:51:22;;;;;;;9.98;5.20;;;14.50;99.90;;;;;;5053167;28;20297;-71
2022/10/17 02:53:55;;;;;;;6.00;5.43;;;14.40;99.90;;;;;;5052922;28;20633;-71
2022/10/17 02:56:22;;;;;;;9.90;5.53;;;14.40;99.90;;;;;;5052928;28;20200;-71
2022/10/17 02:58:54;;;;;;;6.90;5.22;;;14.30;99.90;;;;;;5054499;28;20224;-73
2022/10/17 03:01:21;;;;;;;7.68;5.80;;;14.40;99.90;;;;;;5051414;28;20215;-74
2022/10/17 03:03:50;;;;;;;9.05;6.20;;;14.40;99.90;;;;;;5050471;28;20565;-72
2022/10/17 03:06:17;;;;;;;5.22;4.55;;;14.40;99.90;;;;;;5055117;28;20215;-74
2022/10/17 03:08:43;;;;;;;5.45;4.90;;;14.40;99.90;;;;;;5053165;28;20227;-70
2022/10/17 03:11:10;;;;;;;6.05;4.70;;;14.40;99.90;;;;;;5054026;28;20303;-73
2022/10/17 03:13:37;;;;;;;6.63;5.60;;;14.40;99.90;;;;;;5052874;28;20221;-72
2022/10/17 03:16:05;;;;;;;6.10;4.90;;;14.40;99.90;;;;;;5047488;28;20279;-73
2022/10/17 03:18:32;;;;;;;6.05;5.45;;;14.30;99.90;;;;;;5048745;28;20231;-71
2022/10/17 03:21:00;;;;;;;6.53;5.93;;;14.30;99.90;;;;;;5052247;28;20279;-73
2022/10/17 03:23:27;;;;;;;5.53;5.03;;;14.20;99.90;;;;;;5053258;28;20211;-74
2022/10/17 03:25:54;;;;;;;5.75;5.15;;;14.20;99.90;;;;;;5064482;28;20194;-72
2022/10/17 03:28:22;;;;;;;10.70;6.32;;;14.10;99.90;;;;;;5060605;28;20314;-71
2022/10/17 03:30:49;;;;;;;7.50;5.32;;;14.10;99.90;;;;;;5062417;28;20282;-71
2022/10/17 03:33:16;;;;;;;7.20;6.05;;;14.10;99.90;;;;;;5053608;28;20238;-75
2022/10/17 03:35:43;;;;;;;6.38;5.70;;;14.00;99.90;;;;;;5053340;28;20228;-74
2022/10/17 03:38:11;;;;;;;8.75;6.15;;;14.00;99.90;;;;;;5052877;28;20219;-76
2022/10/17 03:40:38;;;;;;;10.00;6.28;;;14.00;99.90;;;;;;5060577;28;20206;-74
2022/10/17 03:43:05;;;;;;;9.80;6.30;;;14.00;99.90;;;;;;5053032;28;20558;-72
2022/10/17 03:45:32;;;;;;;6.72;6.03;;;13.90;99.90;;;;;;5052704;28;20235;-74
2022/10/17 03:47:59;;;;;;;7.97;7.18;;;13.90;99.90;;;;;;5052339;28;20230;-71
2022/10/17 03:50:26;;;;;;;7.60;6.80;;;13.90;99.90;;;;;;5051984;28;20290;-73
2022/10/17 03:52:53;;;;;;;9.93;8.00;;;13.90;99.90;;;;;;5052358;28;20729;-70
2022/10/17 03:55:21;;;;;;;9.07;6.97;;;13.90;99.90;;;;;;5067463;28;20203;-73
2022/10/17 03:57:48;;;;;;;7.50;6.85;;;13.80;99.90;;;;;;5052540;28;20777;-72
2022/10/17 04:00:15;;;;;;;7.47;6.53;;;13.80;99.90;;;;;;5044963;28;20208;-73
2022/10/17 04:02:43;;;;;;;7.70;7.00;;;13.80;99.90;;;;;;5055058;28;20269;-75
2022/10/17 04:05:10;;;;;;;8.35;7.47;;;13.80;99.90;;;;;;5052347;28;20212;-74
2022/10/17 04:07:37;;;;;;;11.82;6.93;;;13.80;99.90;;;;;;5051911;28;20674;-71
2022/10/17 04:10:05;;;;;;;8.98;7.05;;;13.80;99.90;;;;;;5051262;28;20630;-72
2022/10/17 04:12:33;;;;;;;8.70;7.72;;;13.90;99.90;;;;;;5052506;28;20628;-72
2022/10/17 04:15:00;;;;;;;7.63;6.93;;;13.80;99.90;;;;;;5050428;28;20210;-72
2022/10/17 04:17:29;;;;;;;7.38;6.68;;;13.90;99.90;;;;;;5052815;28;20219;-71
2022/10/17 04:19:56;;;;;;;7.35;6.65;;;13.80;99.90;;;;;;5056559;28;20200;-72
2022/10/17 04:22:23;;;;;;;8.70;7.90;;;13.80;99.90;;;;;;5053275;28;20278;-72
2022/10/17 04:24:50;;;;;;;8.80;7.88;;;13.80;99.90;;;;;;5058094;28;20204;-73
2022/10/17 04:27:17;;;;;;;9.13;7.40;;;13.80;99.90;;;;;;5055748;28;20211;-73
2022/10/17 04:29:45;;;;;;;11.00;8.43;;;13.80;99.90;;;;;;5064454;28;20286;-71
2022/10/17 04:32:13;;;;;;;8.35;7.45;;;13.80;99.90;;;;;;5056130;28;20205;-73
2022/10/17 04:34:39;;;;;;;8.25;7.45;;;13.70;99.90;;;;;;5057476;28;20242;-74
2022/10/17 04:37:06;;;;;;;11.68;7.55;;;13.70;99.90;;;;;;5056440;28;20223;-70
2022/10/17 04:39:33;;;;;;;9.15;8.10;;;13.60;99.90;;;;;;5056953;28;20620;-72
2022/10/17 04:42:01;;;;;;;9.25;7.90;;;13.70;99.90;;;;;;5057870;28;20204;-74
2022/10/17 04:44:29;;;;;;;13.63;8.60;;;13.70;99.90;;;;;;5056656;28;20352;-74
2022/10/17 04:47:00;;;;;;;9.00;7.90;;;13.70;99.90;;;;;;5057125;28;20212;-74
2022/10/17 04:49:27;;;;;;;9.15;7.85;;;13.70;99.90;;;;;;5061566;28;20583;-74
2022/10/17 04:51:54;;;;;;;7.60;6.90;;;13.80;99.90;;;;;;5057570;28;20227;-74
2022/10/17 04:54:20;;;;;;;13.02;8.80;;;13.70;99.90;;;;;;5058280;28;20298;-73
2022/10/17 04:56:48;;;;;;;11.48;8.43;;;13.70;99.90;;;;;;5059144;28;20283;-74
2022/10/17 04:59:15;;;;;;;12.52;8.95;;;13.70;99.90;;;;;;5062126;28;20676;-75
2022/10/17 05:01:42;;;;;;;9.07;7.55;;;13.70;99.90;;;;;;5061015;28;20221;-74
2022/10/17 05:04:10;;;;;;;8.70;7.80;;;13.70;99.90;;;;;;5051886;28;20283;-74
2022/10/17 05:06:37;;;;;;;13.73;8.77;;;13.60;99.90;;;;;;5059013;28;20206;-74
2022/10/17 05:09:04;;;;;;;9.60;8.60;;;13.60;99.90;;;;;;5058790;28;20247;-73
2022/10/17 05:11:31;;;;;;;8.48;7.60;;;13.60;99.90;;;;;;5068078;28;20203;-72
2022/10/17 05:14:06;;;;;;;11.43;8.43;;;13.60;99.90;;;;;;5059555;28;20206;-72
2022/10/17 05:16:34;;;;;;;9.80;8.80;;;13.60;99.90;;;;;;5059995;28;20658;-73
2022/10/17 05:19:02;;;;;;;10.23;9.23;;;13.60;99.90;;;;;;5055566;28;20273;-73
2022/10/17 05:21:30;;;;;;;12.43;9.77;;;13.60;99.90;;;;;;5053784;28;20290;-71
2022/10/17 05:23:57;;;;;;;14.18;8.90;;;13.60;99.90;;;;;;5055235;28;20223;-71
2022/10/17 05:26:25;;;;;;;10.57;9.40;;;13.50;99.90;;;;;;5055170;28;20294;-73
2022/10/17 05:28:53;;;;;;;8.20;7.50;;;13.60;99.90;;;;;;5055514;28;20249;-75
2022/10/17 05:31:20;;;;;;;11.55;9.07;;;13.60;99.90;;;;;;5051192;28;20602;-73
2022/10/17 05:33:47;;;;;;;8.55;7.65;;;13.60;99.90;;;;;;5054973;28;20207;-71
2022/10/17 05:36:21;;;;;;;11.52;7.38;;;13.60;99.90;;;;;;5054728;28;20200;-73
2022/10/17 05:38:51;;;;;;;9.57;8.15;;;13.60;99.90;;;;;;5047323;28;20229;-73
2022/10/17 05:41:19;;;;;;;17.73;9.48;;;13.50;99.90;;;;;;5054551;28;20244;-72
2022/10/17 05:43:46;;;;;;;12.15;10.00;;;13.50;99.90;;;;;;5069621;28;20199;-73
2022/10/17 05:46:15;;;;;;;11.95;8.85;;;13.50;99.90;;;;;;5060966;28;20211;-73
2022/10/17 05:48:42;;;;;;;9.90;8.90;;;13.50;99.90;;;;;;5053991;28;20224;-73
2022/10/17 05:51:12;;;;;;;17.58;10.55;;;13.50;99.90;;;;;;5054339;28;20696;-72
2022/10/17 05:53:41;;;;;;;14.07;7.97;;;13.50;99.90;;;;;;5054356;28;20231;-74
2022/10/17 05:56:13;;;;;;;13.43;10.60;;;13.50;99.90;;;;;;5054336;28;20253;-73
2022/10/17 05:58:41;;;;;;;10.77;9.70;;;13.50;99.90;;;;;;5057919;28;20694;-76
2022/10/17 06:01:08;;;;;;;14.18;8.23;;;13.50;99.90;;;;;;5055762;28;20214;-75
2022/10/17 06:03:35;;;;;;;11.60;8.80;;;13.50;99.90;;;;;;5059455;28;20196;-72
2022/10/17 06:06:07;;;;;;;11.25;8.98;;;13.60;99.90;;;;;;5056038;28;20235;-75
2022/10/17 06:08:34;;;;;;;10.52;9.20;;;13.60;99.90;;;;;;5053890;28;20735;-74
2022/10/17 06:11:00;;;;;;;14.18;9.98;;;13.60;99.90;;;;;;5053625;28;20687;-73
2022/10/17 06:13:29;;;;;;;10.27;9.27;;;13.60;99.90;;;;;;5056996;28;20214;-73
2022/10/17 06:15:56;;;;;;;10.18;8.75;;;13.70;99.90;;;;;;5053954;28;20278;-75
2022/10/17 06:18:24;;;;;;;13.50;9.13;;;13.70;99.90;;;;;;5056231;28;20307;-75
2022/10/17 06:20:51;;;;;;;8.80;7.90;;;13.80;99.90;;;;;;5057420;28;20253;-74
2022/10/17 06:23:18;;;;;;;10.15;7.70;;;13.80;99.90;;;;;;5054384;28;20203;-73
2022/10/17 06:25:45;;;;;;;8.57;7.53;;;13.90;99.90;;;;;;5057167;28;20286;-73
2022/10/17 06:28:12;;;;;;;8.10;7.30;;;13.80;99.90;;;;;;5057568;28;20227;-75
2022/10/17 06:30:41;;;;;;;12.10;8.02;;;13.90;99.90;;;;;;5055621;28;20208;-77
2022/10/17 06:33:08;;;;;;;9.25;8.40;;;14.10;99.90;;;;;;5054488;28;20283;-75
2022/10/17 06:35:35;;;;;;;8.73;7.95;;;14.10;99.90;;;;;;5055323;28;20288;-76
2022/10/17 06:38:03;;;;;;;7.38;6.68;;;14.20;99.90;;;;;;5057243;28;20294;-75
2022/10/17 06:40:30;;;;;;;9.80;7.80;;;14.40;99.90;;;;;;5060103;28;20591;-76
2022/10/17 06:42:57;;;;;;;8.45;7.03;;;14.50;99.90;;;;;;5053770;28;20574;-74
2022/10/17 06:45:24;;;;;;;7.22;6.15;;;14.70;99.90;;;;;;5057207;28;20219;-75
2022/10/17 06:47:53;;;;;;;9.68;7.47;;;14.90;99.90;;;;;;5052652;28;20339;-74
2022/10/17 06:50:20;;;;;;;7.28;6.53;;;15.00;99.90;;;;;;5054688;28;20285;-72
2022/10/17 06:52:51;;;;;;;7.78;6.22;;;15.20;99.90;;;;;;5056249;28;20286;-73
2022/10/17 06:55:17;;;;;;;9.37;5.77;;;15.40;99.90;;;;;;5057101;28;20230;-70
2022/10/17 06:57:54;;;;;;;4.97;4.47;;;16.10;99.90;;;;;;5059048;28;20493;-76
2022/10/17 07:00:22;;;;;;;6.10;5.43;;;16.80;99.90;;;;;;5057128;28;20974;-74
2022/10/17 07:02:49;;;;;;;6.57;4.73;;;17.50;99.90;;;;;;5063049;28;20456;-74
2022/10/17 07:05:18;;;;;;;6.47;4.37;;;18.10;99.90;;;;;;5052196;28;20452;-74
2022/10/17 07:07:45;;;;;;;4.97;4.47;;;18.50;99.90;;;;;;5055640;28;21038;-74
2022/10/17 07:10:12;;;;;;;4.77;3.70;;;18.60;99.90;;;;;;5055832;28;20481;-71
2022/10/17 07:12:39;;;;;;;5.93;4.03;;;19.40;99.90;;;;;;5054423;28;20470;-72
2022/10/17 07:15:06;;;;;;;5.43;4.93;;;19.40;99.90;;;;;;5057956;28;20456;-74
2022/10/17 07:17:33;;;;;;;5.17;4.50;;;18.90;99.90;;;;;;5055283;28;20555;-74
2022/10/17 07:20:01;;;;;;;7.10;6.40;;;18.60;99.90;;;;;;5053461;28;20434;-71
2022/10/17 07:22:29;;;;;;;10.33;4.57;;;18.40;99.90;;;;;;5056607;28;20504;-71
2022/10/17 07:24:56;;;;;;;6.17;5.37;;;18.20;99.90;;;;;;5062613;28;20599;-71
2022/10/17 07:27:23;;;;;;;6.03;5.33;;;17.80;99.90;;;;;;5053935;28;20494;-75
2022/10/17 07:29:50;;;;;;;6.40;5.03;;;18.10;99.90;;;;;;5050215;28;20594;-76
2022/10/17 07:32:17;;;;;;;4.77;4.10;;;18.90;99.90;;;;;;5054319;28;20454;-76
2022/10/17 07:34:44;;;;;;;7.23;4.20;;;20.20;99.90;;;;;;5054423;28;20438;-75
2022/10/17 07:37:11;;;;;;;4.93;4.30;;;21.30;99.90;;;;;;5052513;28;20499;-75
2022/10/17 07:39:41;;;;;;;8.03;4.20;;;22.10;99.90;;;;;;5055814;28;20813;-75
2022/10/17 07:42:08;;;;;;;8.50;4.77;;;21.60;99.90;;;;;;5049346;28;20443;-75
2022/10/17 07:44:46;;;;;;;4.30;4.00;;;21.20;99.90;;;;;;5050229;28;20917;-75
2022/10/17 07:47:14;;;;;;;6.40;5.17;;;20.50;99.90;;;;;;5043750;28;20876;-76
2022/10/17 07:49:42;;;;;;;8.70;5.60;;;19.90;99.90;;;;;;5052569;28;20446;-76
2022/10/17 07:52:11;;;;;;;5.93;4.70;;;19.60;99.90;;;;;;5063496;28;20820;-75
2022/10/17 07:54:38;;;;;;;5.77;5.17;;;19.30;99.90;;;;;;5057621;28;20456;-76
2022/10/17 07:57:06;;;;;;;5.73;4.57;;;19.20;99.90;;;;;;5062933;28;20485;-76
2022/10/17 07:59:34;;;;;;;7.07;5.27;;;19.20;99.90;;;;;;5055138;28;20466;-74
2022/10/17 08:02:01;;;;;;;4.97;4.47;;;19.00;99.90;;;;;;5053366;28;20455;-75
2022/10/17 08:04:53;;;;;;;5.73;4.20;;;18.90;99.90;;;;;;5053637;28;20463;-75
2022/10/17 08:07:20;;;;;;;8.00;4.83;;;18.70;99.90;;;;;;5057972;28;20540;-73
2022/10/17 08:09:57;;;;;;;6.60;5.87;;;18.90;99.90;;;;;;5066125;28;20800;-75
2022/10/17 08:12:25;;;;;;;4.90;4.43;;;19.00;99.90;;;;;;5051558;28;20442;-76
2022/10/17 08:15:25;;;;;;;6.63;5.57;;;19.10;99.90;;;;;;5043508;28;20542;-76
2022/10/17 08:17:54;;;;;;;6.57;5.03;;;19.30;99.90;;;;;;5054746;28;20462;-75
2022/10/17 08:20:38;;;;;;;5.40;4.90;;;19.60;99.90;;;;;;5063088;28;20526;-76
2022/10/17 08:23:05;;;;;;;8.83;3.57;;;19.70;99.90;;;;;;5065816;28;20982;-77
2022/10/17 08:25:39;;;;;;;4.50;3.60;;;20.10;99.90;;;;;;5053397;28;20444;-76
2022/10/17 08:28:09;;;;;;;5.03;4.10;;;21.00;99.90;;;;;;5051311;28;20486;-74
2022/10/17 08:30:36;;;;;;;8.67;4.67;;;21.90;99.90;;;;;;5051004;28;20857;-74
2022/10/17 08:33:04;;;;;;;4.93;4.07;;;22.60;99.90;;;;;;5055492;28;20450;-78
2022/10/17 08:35:30;;;;;;;6.57;4.50;;;22.50;99.90;;;;;;5054492;28;20534;-75
2022/10/17 08:38:00;;;;;;;5.93;4.47;;;22.60;99.90;;;;;;5052912;28;20549;-74
2022/10/17 08:40:29;;;;;;;7.37;4.43;;;22.60;99.90;;;;;;5052528;28;20532;-74
2022/10/17 08:43:23;;;;;;;6.83;4.60;;;22.80;99.90;;;;;;5050139;28;20443;-77
2022/10/17 08:45:55;;;;;;;5.60;3.30;;;23.10;99.90;;;;;;5057670;28;20522;-78
2022/10/17 08:48:25;;;;;;;5.03;4.47;;;23.80;99.90;;;;;;5053432;28;20908;-77
2022/10/17 08:50:58;;;;;;;6.30;4.30;;;23.40;99.90;;;;;;5052344;28;20450;-78
2022/10/17 08:53:31;;;;;;;5.30;4.00;;;23.60;99.90;;;;;;5058289;28;20541;-77
2022/10/17 08:55:59;;;;;;;5.97;3.47;;;24.00;99.90;;;;;;5054696;28;20446;-76
2022/10/17 08:58:32;;;;;;;4.53;3.10;;;24.20;99.90;;;;;;5056340;28;20549;-78
2022/10/17 09:01:06;;;;;;;4.43;4.03;;;23.90;99.90;;;;;;5056792;28;20499;-77
2022/10/17 09:03:44;;;;;;;4.80;4.30;;;24.00;99.90;;;;;;5057438;28;20528;-77
2022/10/17 09:06:19;;;;;;;5.07;3.30;;;23.90;99.90;;;;;;5050513;28;20537;-74
2022/10/17 09:08:59;;;;;;;6.17;5.57;;;24.40;99.90;;;;;;5053502;28;20483;-74
2022/10/17 09:11:40;;;;;;;4.90;4.10;;;24.90;99.90;;;;;;5048451;28;20485;-75
2022/10/17 09:14:34;;;;;;;6.10;4.30;;;25.30;99.90;;;;;;5054734;28;20446;-77
2022/10/17 09:17:11;;;;;;;5.03;4.17;;;25.30;99.90;;;;;;5053450;28;20644;-76
2022/10/17 09:19:43;;;;;;;4.90;3.93;;;24.90;99.90;;;;;;5049929;28;20436;-76
2022/10/17 09:22:16;;;;;;;6.50;4.10;;;24.60;99.90;;;;;;5054384;28;20540;-77
2022/10/17 09:24:49;;;;;;;7.73;3.73;;;24.00;99.90;;;;;;5054961;28;20470;-77
2022/10/17 09:27:23;;;;;;;4.77;4.37;;;23.60;99.90;;;;;;5053618;28;20454;-78
2022/10/17 09:30:02;;;;;;;9.63;4.47;;;23.40;99.90;;;;;;5046977;28;20535;-77
2022/10/17 09:32:29;;;;;;;5.07;4.27;;;23.40;99.90;;;;;;5053578;28;20449;-76
2022/10/17 09:34:56;;;;;;;4.47;4.07;;;23.50;99.90;;;;;;5055076;28;20497;-76
2022/10/17 09:37:31;;;;;;;14.60;3.53;;;23.40;99.90;;;;;;5058862;28;20552;-76
2022/10/17 09:39:58;;;;;;;6.33;4.50;;;23.40;99.90;;;;;;5055582;28;20529;-78
2022/10/17 09:42:27;;;;;;;4.83;4.13;;;23.20;99.90;;;;;;5058674;28;20477;-77
2022/10/17 09:45:13;;;;;;;4.83;3.63;;;23.00;99.90;;;;;;5054904;28;20961;-76
2022/10/17 09:47:44;;;;;;;3.70;3.40;;;23.20;99.90;;;;;;5054512;28;20809;-76
2022/10/17 09:50:21;;;;;;;6.93;4.20;;;23.40;99.90;;;;;;5066567;28;20485;-75
2022/10/17 09:52:49;;;;;;;3.97;3.03;;;23.50;99.90;;;;;;5053887;28;20485;-76
2022/10/17 09:55:20;;;;;;;10.87;5.97;;;23.50;99.90;;;;;;5055360;28;20587;-77
2022/10/17 09:57:56;;;;;;;6.70;3.83;;;23.40;99.90;;;;;;5058970;28;20549;-76
2022/10/17 10:00:26;;;;;;;6.77;4.07;;;23.20;99.90;;;;;;5053646;28;20451;-77
2022/10/17 10:03:09;;;;;;;6.60;4.80;;;23.00;99.90;;;;;;5061604;28;20456;-77
2022/10/17 10:05:36;;;;;;;4.40;3.73;;;22.90;99.90;;;;;;5054370;28;20442;-76
2022/10/17 10:08:05;;;;;;;8.07;5.10;;;22.90;99.90;;;;;;5049456;28;20505;-77
2022/10/17 10:10:33;;;;;;;6.17;4.23;;;22.70;99.90;;;;;;5054840;28;20460;-76
2022/10/17 10:13:07;;;;;;;7.90;5.60;;;22.60;99.90;;;;;;5056042;28;20446;-79
2022/10/17 10:15:40;;;;;;;8.40;4.73;;;22.40;99.90;;;;;;5055029;28;20489;-77
2022/10/17 10:18:29;;;;;;;7.80;5.37;;;22.20;99.90;;;;;;5067330;28;20474;-75
2022/10/17 10:21:09;;;;;;;6.07;4.37;;;21.90;99.90;;;;;;5071183;28;20517;-77
2022/10/17 10:23:38;;;;;;;7.57;5.13;;;21.70;99.90;;;;;;5074121;28;20446;-75
2022/10/17 10:26:20;;;;;;;7.83;4.90;;;21.50;99.90;;;;;;5057711;28;20464;-76
2022/10/17 10:28:54;;;;;;;6.20;4.37;;;21.30;99.90;;;;;;5055391;28;20991;-77
2022/10/17 10:31:30;;;;;;;4.97;4.50;;;21.30;99.90;;;;;;5052673;28;20441;-77
2022/10/17 10:33:59;;;;;;;6.23;4.20;;;21.20;99.90;;;;;;5064914;28;20449;-77
2022/10/17 10:36:44;;;;;;;6.10;4.93;;;21.20;99.90;;;;;;5054206;28;20971;-77
2022/10/17 10:39:28;;;;;;;6.70;4.70;;;21.10;99.90;;;;;;5054261;28;20512;-77
2022/10/17 10:41:55;;;;;;;5.73;4.27;;;21.20;99.90;;;;;;5064875;28;20479;-77
2022/10/17 10:44:30;;;;;;;5.13;4.73;;;21.30;99.90;;;;;;5045854;28;20974;-75
2022/10/17 10:47:19;;;;;;;8.50;4.60;;;21.40;99.90;;;;;;5055603;28;20472;-75
2022/10/17 10:49:47;;;;;;;7.17;5.00;;;21.50;99.90;;;;;;5051415;28;20581;-77
2022/10/17 10:52:23;;;;;;;5.10;4.60;;;21.40;99.90;;;;;;5058799;28;20442;-77
2022/10/17 10:54:58;;;;;;;6.30;5.27;;;21.20;99.90;;;;;;5057135;28;20968;-76
2022/10/17 10:57:30;;;;;;;5.80;4.83;;;21.30;99.90;;;;;;5043210;28;20561;-76
2022/10/17 11:00:04;;;;;;;5.33;4.83;;;21.40;99.90;;;;;;5054339;28;20438;-75
2022/10/17 11:02:38;;;;;;;6.17;5.57;;;21.40;99.90;;;;;;5043783;28;20486;-77
2022/10/17 11:05:28;;;;;;;6.33;4.87;;;21.40;99.90;;;;;;5053356;28;20445;-74
2022/10/17 11:08:03;;;;;;;8.73;5.97;;;21.30;99.90;;;;;;5058146;28;20469;-76
2022/10/17 11:10:36;;;;;;;5.77;5.27;;;21.10;99.90;;;;;;5065202;28;20560;-76
2022/10/17 11:13:09;;;;;;;8.53;5.77;;;20.80;99.90;;;;;;5045298;28;20524;-76
2022/10/17 11:15:44;;;;;;;6.77;4.53;;;20.50;99.90;;;;;;5064775;28;20522;-76
2022/10/17 11:24:02;;;;;;;9.40;6.97;;;20.00;99.90;;;;;;5034169;28;20430;-76
2022/10/17 11:26:41;;;;;;;14.43;7.53;;;19.70;99.90;;;;;;5065368;28;20531;-77
2022/10/17 11:29:12;;;;;;;9.77;6.90;;;19.40;99.90;;;;;;5054207;28;20487;-75
2022/10/17 11:31:43;;;;;;;8.80;7.23;;;19.30;99.90;;;;;;5052443;28;20450;-76
2022/10/17 11:34:19;;;;;;;8.90;8.10;;;19.20;99.90;;;;;;5051123;28;20438;-76
2022/10/17 11:36:48;;;;;;;11.57;8.30;;;19.20;99.90;;;;;;5051851;28;20481;-76
2022/10/17 11:39:20;;;;;;;10.60;9.50;;;19.20;99.90;;;;;;5051855;28;21009;-75
2022/10/17 11:41:50;;;;;;;9.93;8.37;;;19.20;99.90;;;;;;5056378;28;20525;-75
2022/10/17 11:44:24;;;;;;;8.57;7.83;;;19.30;99.90;;;;;;5048463;28;20446;-76
2022/10/17 11:46:57;;;;;;;11.67;7.30;;;19.40;99.90;;;;;;5052572;28;20957;-75
2022/10/17 11:49:31;;;;;;;9.73;8.73;;;19.50;99.90;;;;;;5051202;28;20573;-75
2022/10/17 11:52:07;;;;;;;8.57;7.30;;;19.60;99.90;;;;;;5053545;28;20457;-76
2022/10/17 11:54:45;;;;;;;9.53;8.20;;;19.70;99.90;;;;;;5052527;28;20480;-77
2022/10/17 11:57:27;;;;;;;9.90;8.90;;;19.70;99.90;;;;;;5052312;28;20504;-75
2022/10/17 12:00:06;;;;;;;12.13;8.27;;;19.60;99.90;;;;;;5034663;28;20474;-76
2022/10/17 12:02:46;;;;;;;9.97;8.97;;;19.50;99.90;;;;;;5055373;28;20482;-76
2022/10/17 12:05:26;;;;;;;14.93;8.43;;;19.50;99.90;;;;;;5057052;28;20953;-76
2022/10/17 12:07:59;;;;;;;23.37;9.93;;;19.50;99.90;;;;;;5059727;28;20838;-74
2022/10/17 12:10:36;;;;;;;15.73;11.33;;;19.30;99.90;;;;;;5054208;28;20538;-76
2022/10/17 12:13:41;;;;;;;18.53;10.70;;;19.30;99.90;;;;;;5056587;28;20454;-75
2022/10/17 12:16:49;;;;;;;12.20;10.00;;;19.20;99.90;;;;;;5066563;28;20441;-75
2022/10/17 12:19:56;;;;;;;14.87;11.63;;;18.90;99.90;;;;;;5062423;28;20959;-76
2022/10/17 12:22:25;;;;;;;17.90;13.37;;;18.70;99.90;;;;;;5043746;28;20445;-74
2022/10/17 12:25:02;;;;;;;18.80;13.20;;;18.60;99.90;;;;;;5063744;28;20464;-75
2022/10/17 12:30:55;;;;;;;15.37;13.70;;;18.40;99.90;;;;;;5040364;28;20816;-76
2022/10/17 12:33:26;;;;;;;14.27;12.63;;;18.40;99.90;;;;;;5040059;28;20437;-74
2022/10/17 12:40:04;;;;;;;20.67;13.70;;;18.40;99.90;;;;;;5056231;28;20476;-77
2022/10/17 12:42:55;;;;;;;21.83;13.37;;;18.50;99.90;;;;;;5046956;28;20568;-75
2022/10/17 12:45:44;;;;;;;16.70;13.00;;;18.60;99.90;;;;;;5056846;28;20876;-76
2022/10/17 12:48:13;;;;;;;18.47;14.20;;;18.70;99.90;;;;;;5051423;28;20947;-75
2022/10/17 12:51:02;;;;;;;19.90;13.40;;;18.70;99.90;;;;;;5056048;28;20539;-76
2022/10/17 12:53:47;;;;;;;17.63;15.37;;;18.80;99.90;;;;;;5061565;28;20488;-76
2022/10/17 12:56:14;;;;;;;22.70;15.60;;;18.80;99.90;;;;;;5055135;28;20460;-76
2022/10/17 12:58:47;;;;;;;18.77;15.40;;;18.90;99.90;;;;;;5055621;28;20485;-76
2022/10/17 13:01:19;;;;;;;28.57;21.73;;;18.90;99.90;;;;;;5054933;28;20522;-77
2022/10/17 13:03:49;;;;;;;21.63;16.50;;;18.90;99.90;;;;;;5055314;28;20544;-77
2022/10/17 13:06:20;;;;;;;21.80;15.00;;;18.80;99.90;;;;;;5058403;28;20454;-76
2022/10/17 13:08:58;;;;;;;20.37;15.87;;;18.90;99.90;;;;;;5059408;28;20549;-76
2022/10/17 13:11:29;;;;;;;19.90;16.87;;;18.90;99.90;;;;;;5051327;28;20521;-77
2022/10/17 13:14:00;;;;;;;19.87;15.43;;;18.90;99.90;;;;;;5050445;28;20939;-77
2022/10/17 13:16:29;;;;;;;18.33;16.37;;;18.80;99.90;;;;;;5055404;28;20512;-76
2022/10/17 13:18:57;;;;;;;16.60;15.10;;;18.80;99.90;;;;;;5055283;28;20646;-77